createdAt,value
2023-03-19T00:01:16.594Z,268.17
2023-03-19T00:03:43.190Z,261.92
2023-03-19T00:06:09.609Z,241.93
2023-03-19T00:08:36.061Z,232.23
2023-03-19T00:11:02.540Z,224.10
2023-03-19T00:13:29.516Z,213.38
2023-03-19T00:15:56.274Z,225.43
2023-03-19T00:18:23.005Z,374.17
2023-03-19T00:20:49.511Z,312.58
2023-03-19T00:23:16.214Z,297.60
2023-03-19T00:25:42.774Z,275.13
2023-03-19T00:28:09.261Z,268.77
2023-03-19T00:30:36.341Z,257.77
2023-03-19T00:33:02.850Z,245.18
2023-03-19T00:35:29.694Z,233.55
2023-03-19T00:37:56.305Z,228.27
2023-03-19T00:40:22.756Z,212.40
2023-03-19T00:42:49.988Z,201.80
2023-03-19T00:45:16.969Z,200.48
2023-03-19T00:47:43.498Z,204.93
2023-03-19T00:50:10.061Z,200.05
2023-03-19T00:52:36.664Z,196.73
2023-03-19T00:55:03.204Z,185.43
2023-03-19T00:57:30.298Z,188.02
2023-03-19T00:59:57.335Z,185.70
2023-03-19T01:02:24.282Z,181.00
2023-03-19T01:04:51.339Z,180.32
2023-03-19T01:07:18.065Z,176.20
2023-03-19T01:09:44.552Z,172.35
2023-03-19T01:12:11.429Z,173.18
2023-03-19T01:14:37.897Z,167.02
2023-03-19T01:17:04.655Z,162.18
2023-03-19T01:19:31.125Z,162.40
2023-03-19T01:21:57.858Z,160.38
2023-03-19T01:24:24.392Z,154.05
2023-03-19T01:26:50.926Z,152.95
2023-03-19T01:29:17.630Z,154.88
2023-03-19T01:31:44.299Z,152.00
2023-03-19T01:34:10.835Z,146.90
2023-03-19T01:36:37.642Z,145.25
2023-03-19T01:39:03.953Z,142.98
2023-03-19T01:41:30.526Z,140.70
2023-03-19T01:43:58.269Z,140.02
2023-03-19T01:46:26.233Z,138.25
2023-03-19T01:48:55.233Z,134.13
2023-03-19T01:51:22.947Z,133.65
2023-03-19T01:53:50.617Z,132.63
2023-03-19T01:56:17.414Z,129.98
2023-03-19T01:58:44.111Z,129.35
2023-03-19T02:01:10.833Z,122.43
2023-03-19T02:03:40.424Z,125.78
2023-03-19T02:06:07.823Z,120.00
2023-03-19T02:08:36.537Z,121.47
2023-03-19T02:11:04.483Z,118.05
2023-03-19T02:13:32.305Z,116.68
2023-03-19T02:16:02.213Z,116.65
2023-03-19T02:18:30.776Z,115.40
2023-03-19T02:21:05.601Z,114.68
2023-03-19T02:23:34.136Z,108.32
2023-03-19T02:26:04.396Z,107.35
2023-03-19T02:28:40.613Z,104.80
2023-03-19T02:31:16.880Z,102.60
2023-03-19T02:33:45.904Z,104.47
2023-03-19T02:36:15.856Z,98.88
2023-03-19T02:38:44.845Z,96.68
2023-03-19T02:43:43.095Z,100.57
2023-03-19T02:46:11.635Z,97.05
2023-03-19T02:48:40.297Z,94.45
2023-03-19T02:51:06.799Z,91.25
2023-03-19T02:53:33.266Z,92.90
2023-03-19T02:55:59.818Z,90.68
2023-03-19T02:58:26.490Z,91.97
2023-03-19T03:00:53.308Z,82.65
2023-03-19T03:03:20.286Z,87.80
2023-03-19T03:05:46.916Z,83.70
2023-03-19T03:08:13.312Z,84.97
2023-03-19T03:10:40.043Z,79.60
2023-03-19T03:13:07.130Z,82.95
2023-03-19T03:15:33.605Z,81.13
2023-03-19T03:18:00.766Z,78.50
2023-03-19T03:20:27.575Z,77.60
2023-03-19T03:22:54.033Z,75.32
2023-03-19T03:25:20.986Z,78.07
2023-03-19T03:27:47.355Z,75.05
2023-03-19T03:30:14.160Z,74.97
2023-03-19T03:32:41.110Z,74.32
2023-03-19T03:35:07.625Z,69.68
2023-03-19T03:37:34.074Z,74.30
2023-03-19T03:40:00.465Z,68.00
2023-03-19T03:42:27.082Z,68.05
2023-03-19T03:44:53.910Z,70.05
2023-03-19T03:47:20.384Z,69.63
2023-03-19T03:49:46.950Z,64.07
2023-03-19T03:52:13.408Z,64.80
2023-03-19T03:54:39.964Z,66.20
2023-03-19T03:57:07.115Z,65.13
2023-03-19T03:59:33.826Z,63.67
2023-03-19T04:02:00.279Z,61.25
2023-03-19T04:04:28.495Z,62.00
2023-03-19T04:06:55.543Z,60.65
2023-03-19T04:09:22.166Z,60.45
2023-03-19T04:11:51.302Z,58.03
2023-03-19T04:14:18.606Z,58.25
2023-03-19T04:16:45.102Z,57.05
2023-03-19T04:19:12.298Z,58.50
2023-03-19T04:21:39.134Z,57.10
2023-03-19T04:24:05.435Z,57.63
2023-03-19T04:26:31.876Z,55.50
2023-03-19T04:28:58.191Z,55.45
2023-03-19T04:31:25.083Z,53.15
2023-03-19T04:33:51.498Z,56.50
2023-03-19T04:36:18.029Z,52.40
2023-03-19T04:38:44.316Z,50.55
2023-03-19T04:41:10.739Z,51.35
2023-03-19T04:43:37.846Z,51.90
2023-03-19T04:46:04.190Z,49.03
2023-03-19T04:48:30.683Z,49.30
2023-03-19T04:50:57.494Z,48.55
2023-03-19T04:53:23.900Z,47.40
2023-03-19T04:55:50.378Z,50.35
2023-03-19T04:58:16.911Z,48.33
2023-03-19T05:00:43.273Z,46.85
2023-03-19T05:03:09.897Z,45.70
2023-03-19T05:05:36.195Z,47.28
2023-03-19T05:08:02.923Z,48.33
2023-03-19T05:10:29.815Z,45.25
2023-03-19T05:12:56.119Z,44.60
2023-03-19T05:15:22.505Z,47.00
2023-03-19T05:17:48.832Z,44.58
2023-03-19T05:20:15.124Z,43.17
2023-03-19T05:22:41.494Z,42.65
2023-03-19T05:25:07.906Z,43.38
2023-03-19T05:27:34.397Z,42.67
2023-03-19T05:30:00.696Z,41.92
2023-03-19T05:32:27.492Z,42.17
2023-03-19T05:34:53.859Z,43.80
2023-03-19T05:37:20.454Z,39.17
2023-03-19T05:39:47.391Z,39.70
2023-03-19T05:42:13.746Z,38.30
2023-03-19T05:44:40.381Z,39.17
2023-03-19T05:47:06.795Z,39.70
2023-03-19T05:49:33.209Z,38.75
2023-03-19T05:51:59.675Z,35.80
2023-03-19T05:54:26.054Z,39.17
2023-03-19T05:56:52.442Z,37.72
2023-03-19T05:59:18.786Z,37.58
2023-03-19T06:01:45.388Z,35.92
2023-03-19T06:04:11.983Z,38.63
2023-03-19T06:06:38.343Z,37.72
2023-03-19T06:09:04.714Z,35.40
2023-03-19T06:11:31.187Z,35.40
2023-03-19T06:13:57.652Z,34.35
2023-03-19T06:16:24.111Z,35.47
2023-03-19T06:18:50.481Z,35.08
2023-03-19T06:21:17.216Z,34.90
2023-03-19T06:23:43.528Z,32.60
2023-03-19T06:26:09.979Z,32.80
2023-03-19T06:28:36.655Z,31.67
2023-03-19T06:31:03.509Z,33.90
2023-03-19T06:33:29.977Z,32.92
2023-03-19T06:35:56.753Z,31.05
2023-03-19T06:38:23.064Z,31.65
2023-03-19T06:40:49.439Z,32.33
2023-03-19T06:43:15.817Z,32.65
2023-03-19T06:45:42.241Z,32.00
2023-03-19T06:48:08.690Z,30.75
2023-03-19T06:50:35.871Z,30.00
2023-03-19T06:53:02.402Z,32.58
2023-03-19T06:55:29.120Z,32.75
2023-03-19T06:57:55.449Z,30.25
2023-03-19T07:00:21.891Z,29.42
2023-03-19T07:02:48.212Z,28.95
2023-03-19T07:05:14.522Z,29.80
2023-03-19T07:07:40.880Z,28.73
2023-03-19T07:10:07.276Z,27.77
2023-03-19T07:12:33.683Z,28.33
2023-03-19T07:15:00.035Z,27.23
2023-03-19T07:17:26.468Z,31.23
2023-03-19T07:19:53.396Z,27.67
2023-03-19T07:22:20.087Z,27.35
2023-03-19T07:24:46.557Z,29.27
2023-03-19T07:27:12.962Z,28.98
2023-03-19T07:29:39.610Z,25.90
2023-03-19T07:32:06.029Z,26.67
2023-03-19T07:34:32.395Z,23.92
2023-03-19T07:36:58.759Z,25.77
2023-03-19T07:39:25.119Z,27.95
2023-03-19T07:41:51.588Z,27.75
2023-03-19T07:44:17.937Z,26.27
2023-03-19T07:46:44.502Z,26.02
2023-03-19T07:49:11.141Z,23.85
2023-03-19T07:51:37.974Z,27.25
2023-03-19T07:54:04.364Z,26.45
2023-03-19T07:56:30.810Z,26.35
2023-03-19T07:58:57.254Z,24.27
2023-03-19T08:01:24.325Z,25.98
2023-03-19T08:03:50.673Z,25.40
2023-03-19T08:06:17.291Z,25.63
2023-03-19T08:08:43.632Z,24.83
2023-03-19T08:11:10.372Z,25.58
2023-03-19T08:13:36.809Z,23.95
2023-03-19T08:16:03.376Z,25.52
2023-03-19T08:18:29.855Z,24.73
2023-03-19T08:20:56.757Z,23.85
2023-03-19T08:23:23.097Z,23.02
2023-03-19T08:25:49.747Z,23.27
2023-03-19T08:28:16.110Z,24.27
2023-03-19T08:30:42.905Z,23.50
2023-03-19T08:33:09.302Z,23.77
2023-03-19T08:35:36.378Z,22.58
2023-03-19T08:38:03.340Z,23.17
2023-03-19T08:40:30.263Z,23.13
2023-03-19T08:42:56.691Z,25.85
2023-03-19T08:45:23.080Z,23.50
2023-03-19T08:47:49.409Z,21.98
2023-03-19T08:50:15.785Z,22.08
2023-03-19T08:52:42.612Z,22.75
2023-03-19T08:55:08.923Z,21.67
2023-03-19T08:57:35.364Z,22.92
2023-03-19T09:00:01.763Z,22.83
2023-03-19T09:02:28.383Z,22.85
2023-03-19T09:04:54.783Z,21.40
2023-03-19T09:07:21.288Z,23.20
2023-03-19T09:09:47.744Z,660.25
2023-03-19T09:12:14.210Z,417.13
2023-03-19T09:14:41.749Z,346.38
2023-03-19T09:17:08.309Z,287.60
2023-03-19T09:19:35.462Z,421.60
2023-03-19T09:22:02.532Z,446.52
2023-03-19T09:24:30.383Z,460.00
2023-03-19T09:26:56.946Z,462.73
2023-03-19T09:29:24.114Z,393.52
2023-03-19T09:31:50.544Z,365.10
2023-03-19T09:34:17.634Z,348.77
2023-03-19T09:36:44.509Z,323.17
2023-03-19T09:39:11.799Z,297.08
2023-03-19T09:41:38.358Z,273.58
2023-03-19T09:44:05.519Z,456.42
2023-03-19T09:46:32.739Z,430.95
2023-03-19T09:48:59.957Z,637.00
2023-03-19T09:51:27.345Z,418.30
2023-03-19T09:53:54.074Z,402.10
2023-03-19T09:56:20.680Z,388.83
2023-03-19T09:58:47.749Z,381.63
2023-03-19T10:01:14.049Z,368.30
2023-03-19T10:03:41.053Z,367.88
2023-03-19T10:06:07.387Z,357.70
2023-03-19T10:08:34.134Z,327.80
2023-03-19T10:11:00.540Z,339.20
2023-03-19T10:13:27.854Z,308.20
2023-03-19T10:15:54.385Z,297.55
2023-03-19T10:18:20.720Z,293.10
2023-03-19T10:20:47.558Z,284.35
2023-03-19T10:23:14.004Z,277.95
2023-03-19T10:25:41.580Z,277.73
2023-03-19T10:28:08.487Z,272.70
2023-03-19T10:30:34.753Z,265.80
2023-03-19T10:33:03.386Z,257.48
2023-03-19T10:35:30.070Z,256.30
2023-03-19T10:37:56.581Z,250.13
2023-03-19T10:40:23.023Z,250.95
2023-03-19T10:42:49.349Z,250.65
2023-03-19T10:45:15.711Z,242.48
2023-03-19T10:47:42.073Z,243.75
2023-03-19T10:50:08.742Z,234.38
2023-03-19T10:52:35.189Z,235.77
2023-03-19T10:55:01.508Z,230.23
2023-03-19T10:57:28.073Z,226.40
2023-03-19T10:59:54.528Z,230.18
2023-03-19T11:02:21.010Z,223.30
2023-03-19T11:04:47.445Z,222.43
2023-03-19T11:07:13.982Z,216.60
2023-03-19T11:09:40.321Z,209.88
2023-03-19T11:12:06.789Z,210.68
2023-03-19T11:14:33.113Z,209.93
2023-03-19T11:16:59.602Z,205.95
2023-03-19T11:19:26.094Z,206.30
2023-03-19T11:21:52.388Z,202.65
2023-03-19T11:24:18.842Z,200.77
2023-03-19T11:26:45.149Z,198.93
2023-03-19T11:29:11.995Z,201.05
2023-03-19T11:31:38.448Z,196.93
2023-03-19T11:34:05.232Z,186.77
2023-03-19T11:36:31.880Z,190.95
2023-03-19T11:38:58.434Z,184.25
2023-03-19T11:41:24.811Z,182.80
2023-03-19T11:43:51.221Z,184.13
2023-03-19T11:46:17.717Z,184.05
2023-03-19T11:48:44.157Z,178.57
2023-03-19T11:51:10.941Z,174.68
2023-03-19T11:53:37.381Z,167.52
2023-03-19T11:56:04.157Z,167.52
2023-03-19T11:58:30.533Z,162.23
2023-03-19T12:00:57.095Z,166.52
2023-03-19T12:03:23.786Z,164.60
2023-03-19T12:05:50.139Z,162.45
2023-03-19T12:08:16.762Z,157.75
2023-03-19T12:10:43.315Z,159.52
2023-03-19T12:13:09.742Z,153.00
2023-03-19T12:15:36.564Z,153.57
2023-03-19T12:18:03.363Z,151.57
2023-03-19T12:20:29.703Z,149.02
2023-03-19T12:22:56.082Z,148.48
2023-03-19T12:25:22.874Z,146.88
2023-03-19T12:27:49.272Z,145.48
2023-03-19T12:30:15.677Z,142.70
2023-03-19T12:32:42.346Z,140.80
2023-03-19T12:35:08.930Z,137.52
2023-03-19T12:37:35.431Z,136.50
2023-03-19T12:40:01.783Z,140.43
2023-03-19T12:42:28.180Z,133.05
2023-03-19T12:44:54.565Z,134.23
2023-03-19T12:47:20.944Z,131.02
2023-03-19T12:49:47.441Z,131.43
2023-03-19T12:52:14.222Z,124.72
2023-03-19T12:54:40.724Z,129.07
2023-03-19T12:57:07.115Z,126.32
2023-03-19T12:59:33.548Z,123.63
2023-03-19T13:02:00.120Z,118.60
2023-03-19T13:04:26.823Z,122.18
2023-03-19T13:06:53.188Z,122.20
2023-03-19T13:09:19.606Z,118.20
2023-03-19T13:11:45.995Z,119.05
2023-03-19T13:14:12.428Z,115.72
2023-03-19T13:16:38.863Z,118.05
2023-03-19T13:19:05.242Z,111.15
2023-03-19T13:21:32.046Z,112.13
2023-03-19T13:23:58.547Z,111.55
2023-03-19T13:26:24.878Z,113.93
2023-03-19T13:28:51.519Z,107.63
2023-03-19T13:31:17.905Z,109.50
2023-03-19T13:33:44.288Z,105.20
2023-03-19T13:36:10.690Z,105.15
2023-03-19T13:38:37.023Z,107.03
2023-03-19T13:41:03.722Z,102.43
2023-03-19T13:43:30.180Z,102.40
2023-03-19T13:45:56.580Z,104.88
2023-03-19T13:48:24.754Z,98.32
2023-03-19T13:50:51.354Z,97.28
2023-03-19T13:53:17.732Z,101.50
2023-03-19T13:55:44.487Z,96.82
2023-03-19T13:58:11.387Z,97.15
2023-03-19T14:00:37.961Z,95.32
2023-03-19T14:03:04.392Z,92.90
2023-03-19T14:05:30.707Z,95.95
2023-03-19T14:07:57.050Z,91.38
2023-03-19T14:10:23.439Z,92.93
2023-03-19T14:12:49.820Z,89.82
2023-03-19T14:15:17.849Z,92.85
2023-03-19T14:17:44.980Z,90.20
2023-03-19T14:20:12.816Z,86.28
2023-03-19T14:22:39.255Z,89.32
2023-03-19T14:25:06.114Z,84.07
2023-03-19T14:27:32.745Z,84.53
2023-03-19T14:30:00.911Z,81.88
2023-03-19T14:32:27.784Z,80.28
2023-03-19T14:34:54.136Z,82.50
2023-03-19T14:37:20.695Z,80.03
2023-03-19T14:39:47.429Z,80.80
2023-03-19T14:42:13.728Z,78.70
2023-03-19T14:44:40.352Z,76.38
2023-03-19T14:47:06.678Z,77.03
2023-03-19T14:49:33.156Z,75.20
2023-03-19T14:51:59.553Z,73.80
2023-03-19T14:54:25.891Z,72.75
2023-03-19T14:56:52.220Z,75.72
2023-03-19T14:59:18.586Z,74.30
2023-03-19T15:01:44.936Z,73.50
2023-03-19T15:04:11.648Z,70.20
2023-03-19T15:06:38.029Z,73.88
2023-03-19T15:09:04.324Z,71.78
2023-03-19T15:11:30.701Z,69.90
2023-03-19T15:13:57.470Z,67.35
2023-03-19T15:16:23.975Z,71.45
2023-03-19T15:18:50.310Z,69.68
2023-03-19T15:21:17.138Z,67.13
2023-03-19T15:23:43.478Z,67.65
2023-03-19T15:26:10.144Z,68.07
2023-03-19T15:28:38.414Z,64.80
2023-03-19T15:31:19.449Z,65.40
2023-03-19T15:33:52.001Z,64.78
2023-03-19T15:36:18.394Z,64.82
2023-03-19T15:38:45.077Z,67.28
2023-03-19T15:41:11.447Z,61.92
2023-03-19T15:43:37.749Z,63.22
2023-03-19T15:46:04.286Z,61.20
2023-03-19T15:48:30.966Z,61.90
2023-03-19T15:50:57.262Z,59.75
2023-03-19T15:53:23.982Z,62.15
2023-03-19T15:55:50.324Z,56.90
2023-03-19T15:58:16.604Z,59.90
2023-03-19T16:00:42.925Z,59.15
2023-03-19T16:03:09.376Z,57.53
2023-03-19T16:05:35.778Z,58.90
2023-03-19T16:08:02.368Z,60.67
2023-03-19T16:10:28.982Z,56.25
2023-03-19T16:12:55.391Z,60.67
2023-03-19T16:15:22.062Z,58.90
2023-03-19T16:17:48.425Z,58.15
2023-03-19T16:20:14.727Z,54.35
2023-03-19T16:22:41.046Z,55.53
2023-03-19T16:25:07.411Z,53.13
2023-03-19T16:27:34.320Z,53.70
2023-03-19T16:30:00.742Z,54.72
2023-03-19T16:32:27.634Z,54.00
2023-03-19T16:34:53.974Z,53.20
2023-03-19T16:37:20.341Z,51.78
2023-03-19T16:39:49.108Z,52.60
2023-03-19T16:42:15.631Z,52.72
2023-03-19T16:44:41.976Z,51.53
2023-03-19T16:47:08.341Z,52.03
2023-03-19T16:49:35.133Z,50.17
2023-03-19T16:52:01.520Z,47.03
2023-03-19T16:54:28.145Z,47.75
2023-03-19T16:56:54.608Z,49.03
2023-03-19T16:59:21.297Z,50.05
2023-03-19T17:01:47.663Z,49.88
2023-03-19T17:04:14.314Z,49.38
2023-03-19T17:06:40.678Z,49.40
2023-03-19T17:09:07.753Z,47.33
2023-03-19T17:11:34.206Z,46.22
2023-03-19T17:14:01.281Z,46.70
2023-03-19T17:16:28.373Z,47.70
2023-03-19T17:18:54.904Z,47.05
2023-03-19T17:21:21.619Z,46.65
2023-03-19T17:23:48.159Z,43.78
2023-03-19T17:26:14.988Z,43.95
2023-03-19T17:28:42.014Z,43.88
2023-03-19T17:31:08.541Z,44.50
2023-03-19T17:33:34.991Z,44.38
2023-03-19T17:36:01.599Z,44.88
2023-03-19T17:38:28.313Z,44.53
2023-03-19T17:40:54.712Z,41.03
2023-03-19T17:43:21.100Z,43.03
2023-03-19T17:45:47.553Z,42.45
2023-03-19T17:48:13.877Z,43.67
2023-03-19T17:50:40.525Z,43.63
2023-03-19T17:53:06.936Z,43.00
2023-03-19T17:55:33.319Z,41.10
2023-03-19T17:58:00.066Z,42.00
2023-03-19T18:00:26.848Z,40.22
2023-03-19T18:02:53.369Z,40.85
2023-03-19T18:05:19.737Z,39.15
2023-03-19T18:07:46.103Z,38.65
2023-03-19T18:10:12.675Z,40.15
2023-03-19T18:12:39.648Z,39.38
2023-03-19T18:15:06.062Z,38.42
2023-03-19T18:17:32.348Z,38.60
2023-03-19T18:19:58.671Z,37.75
2023-03-19T18:22:25.095Z,35.45
2023-03-19T18:24:51.773Z,199.32
2023-03-19T18:27:18.405Z,204.63
2023-03-19T18:29:44.890Z,232.63
2023-03-19T18:32:11.448Z,281.42
2023-03-19T18:34:37.938Z,201.13
2023-03-19T18:37:04.266Z,183.20
2023-03-19T18:39:30.887Z,239.18
2023-03-19T18:41:57.516Z,368.92
2023-03-19T18:44:23.894Z,343.60
2023-03-19T18:46:50.358Z,312.83
2023-03-19T18:49:17.298Z,282.85
2023-03-19T18:52:00.768Z,264.30
2023-03-19T18:54:28.534Z,250.02
2023-03-19T18:56:55.090Z,223.98
2023-03-19T18:59:21.549Z,215.18
2023-03-19T19:01:48.277Z,207.65
2023-03-19T19:04:14.575Z,194.02
2023-03-19T19:06:47.907Z,180.00
2023-03-19T19:09:14.633Z,170.77
2023-03-19T19:11:41.292Z,161.27
2023-03-19T19:14:07.729Z,153.85
2023-03-19T19:16:34.542Z,152.88
2023-03-19T19:19:01.202Z,145.65
2023-03-19T19:21:27.695Z,139.05
2023-03-19T19:23:54.068Z,136.20
2023-03-19T19:26:20.618Z,130.18
2023-03-19T19:28:47.102Z,122.22
2023-03-19T19:31:13.903Z,116.25
2023-03-19T19:33:40.253Z,112.65
2023-03-19T19:36:07.210Z,114.03
2023-03-19T19:38:33.668Z,105.20
2023-03-19T19:41:00.142Z,102.88
2023-03-19T19:43:27.005Z,101.32
2023-03-19T19:45:54.417Z,95.03
2023-03-19T19:48:20.809Z,96.90
2023-03-19T19:50:47.440Z,89.07
2023-03-19T19:53:14.166Z,86.53
2023-03-19T19:55:40.507Z,82.35
2023-03-19T19:58:08.688Z,80.68
2023-03-19T20:00:35.156Z,77.15
2023-03-19T20:03:01.498Z,74.05
2023-03-19T20:05:27.779Z,71.78
2023-03-19T20:07:54.167Z,70.85
2023-03-19T20:10:20.585Z,68.07
2023-03-19T20:12:47.025Z,64.63
2023-03-19T20:15:13.628Z,64.22
2023-03-19T20:17:40.349Z,61.35
2023-03-19T20:20:06.706Z,61.30
2023-03-19T20:22:33.194Z,56.95
2023-03-19T20:25:00.119Z,54.58
2023-03-19T20:27:26.500Z,52.50
2023-03-19T20:29:53.052Z,53.63
2023-03-19T20:32:19.962Z,63.50
2023-03-19T20:34:46.529Z,130.68
2023-03-19T20:37:12.968Z,139.75
2023-03-19T20:39:39.367Z,120.63
2023-03-19T20:42:06.200Z,116.30
2023-03-19T20:44:33.424Z,108.47
2023-03-19T20:46:59.752Z,109.07
2023-03-19T20:49:26.116Z,106.82
2023-03-19T20:51:52.450Z,105.10
2023-03-19T20:54:18.844Z,158.25
2023-03-19T20:56:45.764Z,406.60
2023-03-19T20:59:12.147Z,491.58
2023-03-19T21:01:38.629Z,457.08
2023-03-19T21:04:04.933Z,391.40
2023-03-19T21:06:46.067Z,375.13
2023-03-19T21:09:18.007Z,339.70
2023-03-19T21:11:44.542Z,325.75
2023-03-19T21:14:10.942Z,304.90
2023-03-19T21:16:37.401Z,301.20
2023-03-19T21:19:03.752Z,291.83
2023-03-19T21:21:30.180Z,280.67
2023-03-19T21:23:56.560Z,278.17
2023-03-19T21:26:23.267Z,275.83
2023-03-19T21:28:49.822Z,396.92
2023-03-19T21:31:16.237Z,474.85
2023-03-19T21:33:43.003Z,467.90
2023-03-19T21:36:09.369Z,363.02
2023-03-19T21:38:35.681Z,269.23
2023-03-19T21:41:02.079Z,275.15
2023-03-19T21:43:28.632Z,400.95
2023-03-19T21:45:55.101Z,359.85
2023-03-19T21:48:21.454Z,335.48
2023-03-19T21:50:47.906Z,325.38
2023-03-19T21:53:14.502Z,309.17
2023-03-19T21:55:40.878Z,301.90
2023-03-19T21:58:07.349Z,289.83
2023-03-19T22:00:33.830Z,293.00
2023-03-19T22:03:00.528Z,285.65
2023-03-19T22:05:27.657Z,279.83
2023-03-19T22:07:54.064Z,276.10
2023-03-19T22:10:20.591Z,264.17
2023-03-19T22:12:47.426Z,265.02
2023-03-19T22:15:13.793Z,256.42
2023-03-19T22:17:40.563Z,253.25
2023-03-19T22:20:07.218Z,249.38
2023-03-19T22:22:33.572Z,248.07
2023-03-19T22:25:00.001Z,244.30
2023-03-19T22:27:26.562Z,242.25
2023-03-19T22:29:52.988Z,235.23
2023-03-19T22:32:19.372Z,234.85
2023-03-19T22:34:46.102Z,226.50
2023-03-19T22:37:12.676Z,226.73
2023-03-19T22:39:39.000Z,228.23
2023-03-19T22:42:05.382Z,228.32
2023-03-19T22:44:31.782Z,217.75
2023-03-19T22:46:58.170Z,216.15
2023-03-19T22:49:24.673Z,219.27
2023-03-19T22:51:51.162Z,214.70
2023-03-19T22:54:17.870Z,211.48
2023-03-19T22:56:44.623Z,212.13
2023-03-19T22:59:11.087Z,207.63
2023-03-19T23:01:37.441Z,203.40
2023-03-19T23:04:03.965Z,203.70
2023-03-19T23:06:31.150Z,195.10
2023-03-19T23:08:57.569Z,195.77
2023-03-19T23:11:24.061Z,194.30
2023-03-19T23:13:50.417Z,196.02
2023-03-19T23:16:16.840Z,193.32
2023-03-19T23:18:43.310Z,185.88
2023-03-19T23:21:09.647Z,190.10
2023-03-19T23:23:36.013Z,185.10
2023-03-19T23:26:02.336Z,178.65
2023-03-19T23:28:28.904Z,181.70
2023-03-19T23:30:55.331Z,178.00
2023-03-19T23:33:21.769Z,178.93
2023-03-19T23:35:48.206Z,176.57
2023-03-19T23:38:14.784Z,176.85
2023-03-19T23:40:41.244Z,168.70
2023-03-19T23:43:07.697Z,169.02
2023-03-19T23:45:34.466Z,165.77
2023-03-19T23:48:01.325Z,168.77
2023-03-19T23:50:28.199Z,165.02
2023-03-19T23:52:54.523Z,162.60
2023-03-19T23:55:20.998Z,163.20
2023-03-19T23:57:47.484Z,155.80
